Terminal Aerodrome Forecast
Issued by NWS

Home | Current Version | Previous Version | Text Only | Print | Product List | Glossary On
Versions: 1 2 3 4 5 6 7 8 9 10 11 12 13 14 15
000
FTUS46 KLOX 012320
TAFBUR
TAF
KBUR 012320Z 0200/0224 18009KT P6SM SCT250
     FM020400 14004KT P6SM SCT250
     FM021000 VRB03KT 5SM BR BKN006
     FM021600 16005KT P6SM FEW010 SCT250
     FM022000 18010KT P6SM SCT250=

USA.gov is the U.S. government's official web portal to all federal, state and local government web resources and services.